This is the latest recevied weather packets stored in our database for station/object KG6QHD-13. If no packets are shown the sender has not sent any weather packets the latest 10 day(s).
| Time | Temp. | Humidity | Pressure | Rain* | Wind** | Luminosity | Snow |
|---|---|---|---|---|---|---|---|
| 1777830945 | 16.67° C | 20% | 1019.8 hPa | 0 mm | - | 835 W/m² | - |
| 1777830644 | 16.11° C | 20% | 1020 hPa | 0 mm | - | 837 W/m² | - |
| 1777826752 | 14.44° C | 24% | 1021 hPa | 0 mm | - | 455 W/m² | - |
| 1777826446 | 14.44° C | 25% | 1021 hPa | 0 mm | - | 408 W/m² | - |
| 1777824952 | 13.89° C | 25% | 1021 hPa | 0 mm | - | 362 W/m² | - |
| 1777824644 | 13.89° C | 25% | 1021 hPa | 0 mm | - | 408 W/m² | - |
| 1777823167 | 12.78° C | 28% | 1021.3 hPa | 0 mm | - | 325 W/m² | - |
| 1777822844 | 12.78° C | 27% | 1021.3 hPa | 0 mm | - | 313 W/m² | - |
| 1777822260 | 12.78° C | 28% | 1021.4 hPa | 0 mm | - | 292 W/m² | - |
| 1777820455 | 12.22° C | 30% | 1021.7 hPa | 0 mm | - | 248 W/m² | - |
| 1777818948 | 11.67° C | 30% | 1021.8 hPa | 0 mm | - | 202 W/m² | - |
| 1777818348 | 11.11° C | 31% | 1021.8 hPa | 0 mm | - | 188 W/m² | - |
| 1777817149 | 10.56° C | 31% | 1021.7 hPa | 0 mm | - | 163 W/m² | - |
| 1777816856 | 10.56° C | 31% | 1021.8 hPa | 0 mm | - | 158 W/m² | - |
| 1777816548 | 10.56° C | 31% | 1021.7 hPa | 0 mm | - | 151 W/m² | - |
| 1777813848 | 10° C | 33% | 1021.7 hPa | 0 mm | - | 76 W/m² | - |
| 1777813548 | 10° C | 33% | 1021.6 hPa | 0 mm | - | 69 W/m² | - |
| 1777812049 | 9.44° C | 33% | 1021.4 hPa | 0 mm | - | 49 W/m² | - |
| 1777811459 | 8.89° C | 34% | 1021.3 hPa | 0 mm | - | 42 W/m² | - |
| 1777810248 | 8.33° C | 36% | 1021.1 hPa | 0 mm | - | 16 W/m² | - |
| 1777809347 | 8.33° C | 35% | 1021.1 hPa | 0 mm | - | 7 W/m² | - |
| 1777808761 | 8.33° C | 36% | 1020.9 hPa | 0 mm | - | 0 W/m² | - |
| 1777808445 | 8.33° C | 35% | 1020.7 hPa | 0 mm | - | 0 W/m² | - |
| 1777807854 | 8.89° C | 35% | 1020.8 hPa | 0 mm | - | 0 W/m² | - |
| 1777807545 | 8.89° C | 34% | 1020.7 hPa | 0 mm | - | 0 W/m² | - |
* Rain latest hour (hover to see other rain measurements)
** Current wind speed in m/s (hover to see current wind gust speed)